Time;durP1;ratioP1;P1;durP2;ratioP2;P2;SDS_P1;SDS_P2;PMS_P1;PMS_P2;Temp;Humidity;BMP_temperature;BMP_pressure;BME280_temperature;BME280_humidity;BME280_pressure;Samples;Min_cycle;Max_cycle;Signal;HPM_P1;HPM_P2
2023/08/18 00:00:25;;;;;;;2.25;2.15;;;22.30;66.10;;;;;;5052389;28;20183;-64
2023/08/18 00:02:51;;;;;;;3.47;2.38;;;22.40;65.30;;;;;;5051866;28;20183;-62
2023/08/18 00:05:17;;;;;;;2.00;1.90;;;22.30;65.30;;;;;;5052318;28;20660;-62
2023/08/18 00:07:42;;;;;;;2.22;2.13;;;22.30;65.20;;;;;;5052652;28;20178;-62
2023/08/18 00:10:08;;;;;;;1.77;1.67;;;22.30;65.30;;;;;;5054163;28;20175;-62
2023/08/18 00:12:34;;;;;;;2.15;1.95;;;22.30;65.20;;;;;;5056617;28;20177;-61
2023/08/18 00:15:01;;;;;;;2.08;1.98;;;22.30;65.30;;;;;;5056192;28;20605;-61
2023/08/18 00:17:26;;;;;;;2.35;2.15;;;22.30;65.20;;;;;;5055572;28;20224;-61
2023/08/18 00:19:52;;;;;;;2.10;2.00;;;22.30;65.20;;;;;;5056130;28;20214;-62
2023/08/18 00:22:18;;;;;;;2.33;2.13;;;22.30;65.30;;;;;;5055776;28;20179;-62
2023/08/18 00:24:44;;;;;;;1.98;1.88;;;22.30;65.30;;;;;;5055494;28;20187;-62
2023/08/18 00:27:09;;;;;;;2.35;2.20;;;22.30;65.20;;;;;;5056059;28;20171;-62
2023/08/18 00:29:35;;;;;;;2.28;2.17;;;22.30;65.30;;;;;;5056106;28;20183;-61
2023/08/18 00:32:00;;;;;;;1.90;1.80;;;22.30;65.30;;;;;;5055139;28;20175;-62
2023/08/18 00:34:26;;;;;;;2.00;1.90;;;22.30;65.30;;;;;;5055868;28;20178;-63
2023/08/18 00:36:52;;;;;;;2.30;2.15;;;22.30;65.70;;;;;;5056304;28;20254;-64
2023/08/18 00:39:17;;;;;;;2.10;2.00;;;22.30;65.30;;;;;;5054877;28;20215;-64
2023/08/18 00:41:43;;;;;;;1.73;1.63;;;22.30;65.30;;;;;;5055897;28;20180;-63
2023/08/18 00:44:08;;;;;;;1.67;1.58;;;22.30;65.30;;;;;;5055416;28;20218;-63
2023/08/18 00:46:34;;;;;;;1.85;1.75;;;22.20;65.20;;;;;;5055444;28;20610;-63
2023/08/18 00:49:01;;;;;;;1.92;1.83;;;22.30;65.30;;;;;;5054549;28;20591;-62
2023/08/18 00:51:27;;;;;;;2.10;1.90;;;22.30;65.40;;;;;;5055959;28;20224;-62
2023/08/18 00:53:52;;;;;;;1.88;1.77;;;22.30;65.30;;;;;;5055371;28;20508;-62
2023/08/18 00:56:18;;;;;;;2.10;2.00;;;22.30;66.20;;;;;;5055724;28;20175;-62
2023/08/18 00:58:43;;;;;;;1.90;1.80;;;22.30;65.40;;;;;;5053435;28;20217;-63
2023/08/18 01:01:09;;;;;;;1.95;1.85;;;22.30;65.40;;;;;;5055335;28;20179;-63
2023/08/18 01:03:34;;;;;;;2.20;1.88;;;22.30;65.40;;;;;;5055655;28;20589;-63
2023/08/18 01:06:00;;;;;;;1.95;1.85;;;22.20;65.30;;;;;;5054524;28;20167;-62
2023/08/18 01:08:26;;;;;;;2.00;1.90;;;22.30;65.40;;;;;;5055398;28;20175;-62
2023/08/18 01:11:06;;;;;;;2.00;1.90;;;22.30;65.30;;;;;;5054114;28;20205;-62
2023/08/18 01:13:48;;;;;;;2.00;1.90;;;22.30;65.40;;;;;;5054404;28;20654;-61
2023/08/18 01:16:17;;;;;;;1.80;1.70;;;22.20;65.30;;;;;;5054801;28;20167;-62
2023/08/18 01:18:43;;;;;;;2.00;1.90;;;22.20;66.20;;;;;;5037408;28;20236;-62
2023/08/18 01:21:10;;;;;;;1.80;1.70;;;22.20;65.30;;;;;;5051538;28;20179;-62
2023/08/18 01:23:39;;;;;;;1.52;1.40;;;22.20;65.30;;;;;;5055038;28;20171;-62
2023/08/18 01:26:04;;;;;;;1.70;1.60;;;22.20;65.40;;;;;;5054729;28;20179;-61
2023/08/18 01:28:31;;;;;;;1.75;1.65;;;22.30;65.40;;;;;;5053953;28;20197;-61
2023/08/18 01:30:57;;;;;;;1.63;1.52;;;22.20;65.40;;;;;;5055164;28;20202;-61
2023/08/18 01:33:36;;;;;;;1.70;1.60;;;22.20;65.40;;;;;;5053503;28;20668;-62
2023/08/18 01:36:07;;;;;;;1.50;1.40;;;22.20;65.40;;;;;;5037217;28;20674;-63
2023/08/18 01:38:33;;;;;;;1.90;1.80;;;22.20;65.40;;;;;;5054752;28;20271;-63
2023/08/18 01:40:58;;;;;;;1.83;1.73;;;22.20;65.40;;;;;;5052496;28;20175;-62
2023/08/18 01:43:24;;;;;;;1.50;1.40;;;22.20;65.40;;;;;;5053338;28;20262;-63
2023/08/18 01:45:49;;;;;;;1.75;1.65;;;22.20;65.40;;;;;;5054409;28;20234;-63
2023/08/18 01:48:15;;;;;;;1.77;1.67;;;22.20;66.30;;;;;;5053723;28;20175;-62
2023/08/18 01:50:40;;;;;;;1.83;1.73;;;22.20;65.40;;;;;;5054762;28;20182;-62
2023/08/18 01:53:06;;;;;;;1.98;1.50;;;22.20;65.40;;;;;;5054475;28;20262;-62
2023/08/18 01:55:31;;;;;;;1.70;1.60;;;22.20;65.50;;;;;;5053941;28;20183;-62
2023/08/18 01:57:57;;;;;;;1.45;1.35;;;22.10;65.30;;;;;;5054346;28;20225;-62
2023/08/18 02:00:22;;;;;;;1.80;1.70;;;22.10;65.30;;;;;;5054153;28;20268;-63
2023/08/18 02:02:48;;;;;;;1.70;1.60;;;22.20;65.40;;;;;;5053499;28;20179;-63
2023/08/18 02:05:14;;;;;;;1.73;1.63;;;22.20;65.40;;;;;;5054054;28;20245;-63
2023/08/18 02:07:39;;;;;;;2.08;1.65;;;22.20;66.20;;;;;;5054402;28;20179;-62
2023/08/18 02:10:05;;;;;;;1.45;1.35;;;22.20;65.40;;;;;;5053294;28;20178;-61
2023/08/18 02:12:31;;;;;;;1.60;1.50;;;22.20;65.50;;;;;;5054270;28;20172;-62
2023/08/18 02:14:56;;;;;;;1.33;1.23;;;22.20;65.40;;;;;;5054120;28;20175;-61
2023/08/18 02:17:22;;;;;;;2.00;1.80;;;22.20;65.40;;;;;;5052883;28;20183;-61
2023/08/18 02:19:48;;;;;;;1.30;1.30;;;22.20;65.50;;;;;;5053874;28;20577;-62
2023/08/18 02:22:13;;;;;;;1.55;1.45;;;22.20;65.50;;;;;;5053680;28;20229;-62
2023/08/18 02:24:39;;;;;;;1.23;1.13;;;22.20;65.40;;;;;;5053234;28;20680;-62
2023/08/18 02:27:04;;;;;;;1.50;1.40;;;22.10;65.30;;;;;;5053555;28;20638;-62
2023/08/18 02:29:31;;;;;;;1.63;1.52;;;22.20;65.40;;;;;;5054118;28;20177;-61
2023/08/18 02:31:56;;;;;;;1.85;1.30;;;22.10;65.30;;;;;;5053197;28;20174;-62
2023/08/18 02:34:25;;;;;;;1.83;1.65;;;22.20;65.50;;;;;;5053918;28;20650;-62
2023/08/18 02:36:50;;;;;;;1.65;1.55;;;22.10;65.30;;;;;;5053207;28;20175;-63
2023/08/18 02:39:16;;;;;;;1.60;1.50;;;22.20;65.40;;;;;;5052497;28;20217;-63
2023/08/18 02:41:41;;;;;;;1.50;1.33;;;22.10;65.40;;;;;;5053540;28;20171;-63
2023/08/18 02:44:07;;;;;;;1.52;1.42;;;22.10;66.20;;;;;;5052185;28;20234;-62
2023/08/18 02:46:32;;;;;;;1.55;1.40;;;22.20;65.50;;;;;;5053599;28;20228;-63
2023/08/18 02:48:58;;;;;;;1.60;1.50;;;22.10;65.40;;;;;;5053458;28;20175;-62
2023/08/18 02:51:24;;;;;;;1.67;1.58;;;22.10;65.40;;;;;;5052930;28;20175;-62
2023/08/18 02:53:50;;;;;;;1.63;1.52;;;22.10;65.40;;;;;;5053524;28;20176;-62
2023/08/18 02:56:15;;;;;;;1.30;1.20;;;22.10;66.20;;;;;;5053207;28;20183;-62
2023/08/18 02:58:41;;;;;;;1.55;1.45;;;22.10;65.40;;;;;;5052590;28;20219;-62
2023/08/18 03:01:07;;;;;;;1.75;1.65;;;22.10;65.40;;;;;;5053012;28;20266;-63
2023/08/18 03:03:33;;;;;;;1.50;1.40;;;22.10;65.40;;;;;;5053439;28;20179;-63
2023/08/18 03:06:00;;;;;;;1.35;1.30;;;22.10;65.40;;;;;;5052552;28;20255;-63
2023/08/18 03:08:26;;;;;;;2.08;1.40;;;22.10;65.40;;;;;;5053032;28;20254;-62
2023/08/18 03:10:58;;;;;;;1.52;1.42;;;22.10;65.40;;;;;;5052899;28;20206;-62
2023/08/18 03:13:24;;;;;;;1.60;1.50;;;22.10;65.50;;;;;;5052217;28;20179;-61
2023/08/18 03:15:49;;;;;;;1.70;1.60;;;22.10;65.40;;;;;;5053182;28;20179;-62
2023/08/18 03:18:15;;;;;;;1.88;1.73;;;22.10;65.40;;;;;;5052577;28;20254;-61
2023/08/18 03:20:41;;;;;;;1.50;1.40;;;22.10;65.40;;;;;;5052255;28;20598;-62
2023/08/18 03:23:07;;;;;;;1.60;1.50;;;22.10;65.40;;;;;;5052554;28;20653;-61
2023/08/18 03:25:32;;;;;;;1.45;1.35;;;22.10;65.40;;;;;;5052710;28;20175;-62
2023/08/18 03:27:58;;;;;;;1.70;1.60;;;22.10;65.50;;;;;;5051784;28;20258;-61
2023/08/18 03:30:23;;;;;;;1.70;1.60;;;22.10;65.40;;;;;;5052715;28;20179;-61
2023/08/18 03:32:51;;;;;;;2.00;1.90;;;22.10;65.50;;;;;;5052906;28;20191;-62
2023/08/18 03:35:17;;;;;;;1.58;1.48;;;22.10;65.50;;;;;;5051753;28;20175;-63
2023/08/18 03:37:43;;;;;;;1.48;1.48;;;22.00;65.40;;;;;;5052690;28;20171;-63
2023/08/18 03:40:09;;;;;;;1.63;1.52;;;22.10;65.50;;;;;;5052375;28;20230;-63
2023/08/18 03:42:34;;;;;;;1.60;1.50;;;22.10;65.50;;;;;;5051969;28;20175;-63
2023/08/18 03:45:00;;;;;;;1.80;1.70;;;22.00;65.40;;;;;;5051725;28;20227;-63
2023/08/18 03:47:25;;;;;;;1.67;1.58;;;22.10;65.50;;;;;;5051778;28;20178;-62
2023/08/18 03:49:51;;;;;;;1.88;1.77;;;22.10;65.50;;;;;;5052765;28;20214;-62
2023/08/18 03:52:16;;;;;;;1.58;1.48;;;22.10;65.50;;;;;;5052415;28;20206;-62
2023/08/18 03:54:42;;;;;;;1.80;1.70;;;22.10;65.50;;;;;;5051891;28;20179;-62
2023/08/18 03:57:07;;;;;;;1.65;1.55;;;22.10;65.50;;;;;;5052293;28;20175;-62
2023/08/18 03:59:33;;;;;;;1.80;1.70;;;22.10;65.50;;;;;;5052359;28;20206;-63
2023/08/18 04:01:59;;;;;;;1.77;1.67;;;22.10;65.50;;;;;;5051741;28;20176;-63
2023/08/18 04:04:24;;;;;;;1.83;1.60;;;22.00;66.30;;;;;;5052311;28;20175;-63
2023/08/18 04:06:50;;;;;;;1.92;1.70;;;22.10;65.60;;;;;;5052370;28;20175;-62
2023/08/18 04:09:16;;;;;;;1.83;1.73;;;22.10;65.60;;;;;;5051643;28;20177;-62
2023/08/18 04:11:42;;;;;;;1.55;1.45;;;22.00;65.50;;;;;;5052494;28;20254;-62
2023/08/18 04:14:08;;;;;;;1.95;1.85;;;22.00;65.50;;;;;;5052020;28;20179;-61
2023/08/18 04:16:34;;;;;;;1.60;1.50;;;22.10;65.60;;;;;;5051814;28;20220;-62
2023/08/18 04:19:00;;;;;;;1.63;1.52;;;22.00;66.40;;;;;;5052026;28;20661;-62
2023/08/18 04:21:26;;;;;;;1.75;1.65;;;22.00;65.50;;;;;;5052132;28;20240;-62
2023/08/18 04:23:52;;;;;;;2.00;1.83;;;22.10;65.60;;;;;;5051578;28;20179;-62
2023/08/18 04:26:18;;;;;;;1.63;1.52;;;22.00;65.60;;;;;;5051890;28;20642;-62
2023/08/18 04:28:45;;;;;;;1.80;1.50;;;22.00;65.60;;;;;;5052008;28;20190;-62
2023/08/18 04:31:11;;;;;;;1.63;1.52;;;22.00;65.50;;;;;;5051106;28;20175;-62
2023/08/18 04:33:36;;;;;;;1.70;1.60;;;22.00;65.50;;;;;;5052145;28;20184;-62
2023/08/18 04:36:03;;;;;;;1.88;1.77;;;22.00;65.60;;;;;;5051790;28;20533;-62
2023/08/18 04:38:29;;;;;;;2.13;1.92;;;22.00;65.60;;;;;;5051310;28;20234;-63
2023/08/18 04:41:01;;;;;;;1.80;1.70;;;22.00;65.60;;;;;;5052149;28;20179;-64
2023/08/18 04:43:28;;;;;;;1.70;1.60;;;22.00;65.50;;;;;;5052002;28;20175;-63
2023/08/18 04:45:54;;;;;;;1.50;1.40;;;22.00;65.60;;;;;;5051343;28;20223;-63
2023/08/18 04:48:20;;;;;;;1.70;1.60;;;22.00;65.60;;;;;;5051840;28;20680;-62
2023/08/18 04:50:45;;;;;;;1.83;1.73;;;22.00;65.60;;;;;;5051278;28;20202;-62
2023/08/18 04:53:11;;;;;;;2.10;2.00;;;22.00;65.60;;;;;;5051920;28;20650;-62
2023/08/18 04:55:37;;;;;;;1.92;1.60;;;22.00;65.60;;;;;;5051944;28;20591;-63
2023/08/18 04:58:03;;;;;;;1.80;1.70;;;22.00;65.60;;;;;;5054422;28;20734;-62
2023/08/18 05:00:29;;;;;;;1.85;1.70;;;22.00;65.60;;;;;;5055360;28;20314;-63
2023/08/18 05:02:55;;;;;;;1.90;1.80;;;22.00;65.60;;;;;;5055602;28;20242;-63
2023/08/18 05:05:20;;;;;;;1.75;1.65;;;22.00;65.60;;;;;;5054289;28;20661;-63
2023/08/18 05:07:46;;;;;;;2.58;1.98;;;22.00;65.60;;;;;;5055625;28;20638;-62
2023/08/18 05:10:11;;;;;;;2.10;1.90;;;22.00;65.60;;;;;;5054977;28;20703;-62
2023/08/18 05:12:37;;;;;;;2.00;1.90;;;22.00;65.60;;;;;;5054554;28;20726;-61
2023/08/18 05:15:03;;;;;;;2.03;1.83;;;22.00;65.60;;;;;;5054863;28;20185;-62
2023/08/18 05:17:29;;;;;;;2.17;2.08;;;22.00;65.70;;;;;;5055225;28;20171;-62
2023/08/18 05:19:54;;;;;;;1.55;1.40;;;22.00;65.60;;;;;;5054277;28;20713;-61
2023/08/18 05:22:21;;;;;;;3.17;2.08;;;22.00;65.60;;;;;;5055026;28;20190;-62
2023/08/18 05:24:50;;;;;;;2.08;1.88;;;22.00;65.70;;;;;;5055299;28;20186;-62
2023/08/18 05:27:16;;;;;;;2.10;2.00;;;22.00;65.60;;;;;;5054215;28;20634;-62
2023/08/18 05:29:42;;;;;;;2.25;1.90;;;22.00;65.70;;;;;;5055171;28;20233;-62
2023/08/18 05:32:07;;;;;;;2.08;1.88;;;22.00;66.50;;;;;;5054679;28;20175;-62
2023/08/18 05:34:33;;;;;;;2.28;2.08;;;22.00;65.60;;;;;;5054097;28;20179;-63
2023/08/18 05:36:59;;;;;;;2.13;1.92;;;22.00;65.60;;;;;;5054632;28;20531;-63
2023/08/18 05:39:24;;;;;;;1.92;1.83;;;22.00;65.60;;;;;;5054725;28;20583;-63
2023/08/18 05:41:50;;;;;;;2.13;1.92;;;22.00;65.70;;;;;;5054053;28;20604;-65
2023/08/18 05:44:15;;;;;;;2.75;2.53;;;22.00;65.60;;;;;;5054213;28;20221;-63
2023/08/18 05:46:41;;;;;;;2.00;1.90;;;22.00;65.60;;;;;;5054792;28;20171;-63
2023/08/18 05:49:07;;;;;;;2.47;2.28;;;22.00;65.60;;;;;;5053569;28;20255;-61
2023/08/18 05:51:32;;;;;;;2.28;2.17;;;22.10;65.70;;;;;;5054740;28;20224;-62
2023/08/18 05:53:58;;;;;;;2.45;2.25;;;22.00;65.70;;;;;;5054207;28;20171;-62
2023/08/18 05:56:23;;;;;;;2.28;1.80;;;22.00;65.70;;;;;;5054616;28;20175;-62
2023/08/18 05:58:49;;;;;;;2.53;2.33;;;22.00;65.70;;;;;;5054523;28;20657;-63
2023/08/18 06:01:14;;;;;;;2.08;1.98;;;22.00;65.70;;;;;;5053411;28;20175;-63
2023/08/18 06:03:41;;;;;;;2.10;1.90;;;22.00;65.70;;;;;;5054230;28;20300;-63
2023/08/18 06:06:06;;;;;;;2.40;2.20;;;22.00;65.70;;;;;;5054074;28;20663;-62
2023/08/18 06:08:32;;;;;;;2.65;2.45;;;22.00;65.70;;;;;;5053280;28;20262;-62
2023/08/18 06:10:57;;;;;;;2.20;2.00;;;22.00;65.80;;;;;;5053954;28;20182;-62
2023/08/18 06:13:23;;;;;;;2.38;2.17;;;22.00;65.70;;;;;;5054039;28;20179;-61
2023/08/18 06:15:54;;;;;;;2.60;2.40;;;22.10;65.70;;;;;;5053438;28;20171;-62
2023/08/18 06:18:20;;;;;;;2.30;2.10;;;22.10;65.70;;;;;;5053583;28;20175;-62
2023/08/18 06:20:46;;;;;;;3.70;2.70;;;22.10;65.60;;;;;;5054215;28;20273;-62
2023/08/18 06:23:11;;;;;;;2.33;2.13;;;22.00;65.50;;;;;;5053180;28;20262;-62
2023/08/18 06:25:37;;;;;;;2.40;2.20;;;22.00;65.50;;;;;;5054121;28;20214;-62
2023/08/18 06:28:02;;;;;;;3.45;2.58;;;22.10;65.50;;;;;;5053908;28;20233;-61
2023/08/18 06:30:31;;;;;;;4.90;2.40;;;22.10;65.50;;;;;;5053447;28;20171;-63
2023/08/18 06:32:56;;;;;;;2.75;2.40;;;22.10;65.50;;;;;;5053739;28;20225;-62
2023/08/18 06:35:22;;;;;;;2.47;2.28;;;22.10;65.50;;;;;;5053604;28;20187;-63
2023/08/18 06:37:47;;;;;;;3.97;2.40;;;22.20;65.50;;;;;;5053118;28;20225;-64
2023/08/18 06:40:13;;;;;;;4.28;1.92;;;22.20;65.50;;;;;;5053283;28;20644;-64
2023/08/18 06:42:39;;;;;;;3.97;2.50;;;22.20;65.50;;;;;;5053685;28;20171;-64
2023/08/18 06:45:05;;;;;;;3.58;2.03;;;22.20;65.50;;;;;;5052273;28;20237;-63
2023/08/18 06:47:30;;;;;;;2.85;2.03;;;22.20;65.60;;;;;;5053654;28;20511;-63
2023/08/18 06:49:56;;;;;;;5.78;2.33;;;22.20;65.60;;;;;;5053651;28;20175;-62
2023/08/18 06:52:21;;;;;;;3.47;2.15;;;22.20;65.60;;;;;;5052419;28;20225;-61
2023/08/18 06:54:47;;;;;;;2.28;2.03;;;22.20;65.60;;;;;;5052933;28;20178;-63
2023/08/18 06:57:13;;;;;;;5.70;2.25;;;22.20;65.50;;;;;;5052647;28;20172;-62
2023/08/18 06:59:38;;;;;;;3.67;2.28;;;22.20;65.50;;;;;;5051902;28;20689;-64
2023/08/18 07:02:04;;;;;;;5.03;2.13;;;22.20;65.50;;;;;;5052465;28;20256;-65
2023/08/18 07:04:29;;;;;;;2.47;1.95;;;22.30;65.50;;;;;;5052662;28;20178;-64
2023/08/18 07:06:55;;;;;;;2.47;2.10;;;22.20;65.50;;;;;;5053309;28;20518;-64
2023/08/18 07:09:20;;;;;;;4.22;2.15;;;22.30;65.60;;;;;;5053117;28;20171;-63
2023/08/18 07:11:46;;;;;;;5.72;2.20;;;22.30;65.70;;;;;;5052427;28;20625;-62
2023/08/18 07:14:12;;;;;;;3.03;1.70;;;22.30;65.80;;;;;;5052773;28;20360;-61
2023/08/18 07:16:38;;;;;;;4.35;2.38;;;22.20;65.80;;;;;;5052773;28;20181;-62
2023/08/18 07:19:03;;;;;;;3.35;2.22;;;22.20;65.80;;;;;;5051298;28;20218;-62
2023/08/18 07:21:29;;;;;;;4.05;2.53;;;22.20;65.90;;;;;;5052866;28;20627;-62
2023/08/18 07:23:55;;;;;;;3.80;2.20;;;22.20;65.90;;;;;;5052907;28;20185;-63
2023/08/18 07:26:20;;;;;;;2.70;2.13;;;22.20;65.90;;;;;;5051843;28;20250;-62
2023/08/18 07:28:46;;;;;;;2.20;2.00;;;22.30;65.90;;;;;;5052817;28;20171;-62
2023/08/18 07:31:11;;;;;;;5.03;2.40;;;22.20;65.90;;;;;;5052371;28;20622;-63
2023/08/18 07:33:37;;;;;;;4.45;1.98;;;22.20;65.90;;;;;;5052013;28;20206;-63
2023/08/18 07:36:03;;;;;;;2.80;2.22;;;22.20;65.90;;;;;;5052640;28;20183;-64
2023/08/18 07:38:32;;;;;;;2.72;2.40;;;22.20;65.90;;;;;;5052663;28;20566;-64
2023/08/18 07:40:57;;;;;;;2.90;2.20;;;22.20;65.90;;;;;;5051594;28;20711;-64
2023/08/18 07:43:23;;;;;;;4.22;2.53;;;22.30;65.90;;;;;;5052648;28;20170;-63
2023/08/18 07:45:49;;;;;;;2.50;2.30;;;22.30;65.90;;;;;;5052379;28;20697;-63
2023/08/18 07:48:14;;;;;;;3.85;2.15;;;22.30;65.80;;;;;;5050588;28;20171;-63
2023/08/18 07:50:41;;;;;;;3.58;2.13;;;22.30;65.80;;;;;;5052804;28;20175;-62
2023/08/18 07:53:06;;;;;;;3.30;2.28;;;22.30;65.80;;;;;;5052437;28;20220;-63
2023/08/18 07:55:32;;;;;;;2.22;2.00;;;22.30;65.80;;;;;;5051879;28;20744;-63
2023/08/18 07:57:57;;;;;;;4.40;2.30;;;22.30;65.70;;;;;;5052129;28;20171;-63
2023/08/18 08:00:23;;;;;;;2.50;2.30;;;22.20;65.70;;;;;;5052181;28;20206;-64
2023/08/18 08:02:49;;;;;;;3.30;2.33;;;22.30;65.70;;;;;;5051893;28;20228;-63
2023/08/18 08:05:17;;;;;;;1.92;1.70;;;22.30;65.60;;;;;;5052203;28;20194;-64
2023/08/18 08:07:43;;;;;;;2.92;2.20;;;22.40;65.70;;;;;;5051463;28;20737;-63
2023/08/18 08:10:08;;;;;;;2.92;2.50;;;22.40;65.70;;;;;;5052074;28;20212;-63
2023/08/18 08:12:34;;;;;;;4.28;2.13;;;22.30;65.60;;;;;;5052293;28;20554;-62
2023/08/18 08:15:00;;;;;;;2.55;2.00;;;22.30;65.60;;;;;;5051220;28;20183;-62
2023/08/18 08:17:26;;;;;;;5.20;2.10;;;22.40;65.60;;;;;;5052352;28;20652;-63
2023/08/18 08:19:52;;;;;;;2.05;1.88;;;22.40;65.60;;;;;;5052326;28;20222;-63
2023/08/18 08:22:17;;;;;;;4.85;2.30;;;22.40;65.60;;;;;;5051371;28;20183;-63
2023/08/18 08:24:43;;;;;;;3.60;1.83;;;22.30;65.60;;;;;;5052082;28;20178;-63
2023/08/18 08:27:09;;;;;;;2.65;1.92;;;22.40;65.70;;;;;;5051848;28;20179;-63
2023/08/18 08:29:34;;;;;;;2.13;1.92;;;22.40;65.80;;;;;;5051606;28;20266;-62
2023/08/18 08:32:00;;;;;;;1.90;1.80;;;22.40;65.80;;;;;;5056083;28;20261;-64
2023/08/18 08:34:26;;;;;;;3.38;2.15;;;22.40;65.70;;;;;;5056082;28;20171;-64
2023/08/18 08:36:52;;;;;;;2.25;2.05;;;22.40;65.70;;;;;;5055408;28;20175;-66
2023/08/18 08:39:17;;;;;;;2.30;2.10;;;22.40;65.60;;;;;;5055600;28;20302;-65
2023/08/18 08:41:43;;;;;;;2.47;2.20;;;22.50;65.60;;;;;;5056089;28;20189;-64
2023/08/18 08:44:08;;;;;;;2.20;2.00;;;22.40;65.60;;;;;;5054610;28;20727;-64
2023/08/18 08:46:34;;;;;;;2.20;2.00;;;22.40;65.50;;;;;;5054904;28;20548;-63
2023/08/18 08:49:00;;;;;;;1.80;1.70;;;22.40;65.60;;;;;;5055777;28;20206;-63
2023/08/18 08:51:26;;;;;;;1.95;1.77;;;22.50;65.60;;;;;;5055348;28;20266;-62
2023/08/18 08:53:51;;;;;;;1.83;1.73;;;22.50;65.60;;;;;;5054799;28;20580;-62
2023/08/18 08:56:17;;;;;;;2.38;1.90;;;22.50;65.50;;;;;;5054167;28;20175;-62
2023/08/18 08:58:42;;;;;;;2.28;2.08;;;22.50;65.60;;;;;;5054973;28;20211;-63
2023/08/18 09:01:08;;;;;;;1.65;1.55;;;22.50;65.50;;;;;;5054613;28;20211;-64
2023/08/18 09:03:34;;;;;;;1.88;1.77;;;22.50;65.60;;;;;;5055961;28;20175;-64
2023/08/18 09:06:00;;;;;;;1.73;1.63;;;22.40;65.50;;;;;;5054820;28;20186;-64
2023/08/18 09:08:25;;;;;;;1.77;1.67;;;22.50;65.60;;;;;;5055795;28;20633;-63
2023/08/18 09:10:51;;;;;;;2.30;2.10;;;22.50;65.60;;;;;;5055694;28;20171;-63
2023/08/18 09:13:16;;;;;;;2.47;2.20;;;22.50;65.50;;;;;;5054582;28;20171;-63
2023/08/18 09:15:44;;;;;;;2.97;1.98;;;22.40;65.40;;;;;;5055823;28;20252;-63
2023/08/18 09:18:11;;;;;;;1.98;1.88;;;22.60;65.50;;;;;;5054764;28;20175;-62
2023/08/18 09:20:37;;;;;;;1.58;1.45;;;22.50;65.50;;;;;;5055473;28;20254;-63
2023/08/18 09:23:02;;;;;;;2.70;2.05;;;22.50;65.30;;;;;;5055263;28;20175;-62
2023/08/18 09:25:35;;;;;;;2.72;1.67;;;22.60;65.40;;;;;;5054480;28;20180;-63
2023/08/18 09:28:04;;;;;;;2.08;1.83;;;22.60;65.20;;;;;;5054321;28;20205;-62
2023/08/18 09:30:31;;;;;;;3.00;1.70;;;22.70;65.10;;;;;;5055470;28;20562;-63
2023/08/18 09:32:59;;;;;;;2.22;2.05;;;22.70;65.00;;;;;;5054539;28;20262;-63
2023/08/18 09:35:24;;;;;;;1.70;1.60;;;22.70;64.80;;;;;;5055143;28;20660;-64
2023/08/18 09:37:57;;;;;;;2.10;1.90;;;22.70;64.70;;;;;;5055257;28;20258;-64
2023/08/18 09:40:22;;;;;;;2.03;1.92;;;22.80;64.80;;;;;;5054103;28;20268;-64
2023/08/18 09:42:48;;;;;;;2.03;1.92;;;22.80;64.90;;;;;;5054241;28;20183;-64
2023/08/18 09:45:14;;;;;;;2.05;1.90;;;22.90;64.80;;;;;;5053380;28;20234;-63
2023/08/18 09:47:40;;;;;;;3.22;1.77;;;22.90;65.60;;;;;;5054502;28;20178;-63
2023/08/18 09:50:08;;;;;;;1.98;1.88;;;22.90;64.70;;;;;;5053550;28;20172;-62
2023/08/18 09:52:33;;;;;;;2.15;1.95;;;22.90;64.80;;;;;;5054983;28;20178;-62
2023/08/18 09:55:14;;;;;;;3.45;2.15;;;22.90;64.80;;;;;;5052834;28;20588;-63
2023/08/18 09:57:52;;;;;;;2.88;2.20;;;22.90;64.80;;;;;;5053846;28;20171;-64
2023/08/18 10:00:18;;;;;;;2.33;1.95;;;23.00;64.80;;;;;;5052411;28;20740;-63
2023/08/18 10:02:44;;;;;;;2.10;2.00;;;23.00;64.70;;;;;;5054582;28;20623;-64
2023/08/18 10:05:10;;;;;;;2.05;1.80;;;23.00;64.70;;;;;;5053197;28;20269;-63
2023/08/18 10:07:35;;;;;;;1.80;1.70;;;23.00;64.80;;;;;;5052719;28;20266;-63
2023/08/18 10:10:03;;;;;;;2.60;2.20;;;23.00;64.80;;;;;;5054560;28;20178;-63
2023/08/18 10:12:29;;;;;;;2.25;2.05;;;23.00;64.90;;;;;;5054431;28;20634;-62
2023/08/18 10:14:55;;;;;;;1.98;1.83;;;23.10;64.80;;;;;;5053969;28;20175;-62
2023/08/18 10:17:23;;;;;;;1.70;1.60;;;23.00;64.90;;;;;;5054141;28;20638;-62
2023/08/18 10:19:58;;;;;;;2.10;1.98;;;23.00;64.80;;;;;;5053225;28;20234;-63
2023/08/18 10:22:25;;;;;;;2.00;1.80;;;23.10;64.80;;;;;;5053532;28;20692;-63
2023/08/18 10:24:51;;;;;;;2.72;1.83;;;23.10;64.80;;;;;;5054384;28;20179;-62
2023/08/18 10:27:26;;;;;;;2.75;1.98;;;23.10;64.80;;;;;;5053966;28;20244;-62
2023/08/18 10:29:54;;;;;;;2.20;2.00;;;23.10;64.90;;;;;;5053512;28;20182;-63
2023/08/18 10:32:20;;;;;;;2.25;2.05;;;23.10;64.80;;;;;;5053875;28;20245;-63
2023/08/18 10:34:45;;;;;;;1.73;1.55;;;23.20;64.90;;;;;;5053156;28;20175;-63
2023/08/18 10:37:14;;;;;;;1.83;1.73;;;23.20;64.90;;;;;;5053181;28;20183;-64
2023/08/18 10:39:40;;;;;;;2.03;1.92;;;23.10;65.70;;;;;;5054323;28;20284;-64
2023/08/18 10:42:15;;;;;;;2.30;2.10;;;23.10;64.90;;;;;;5053761;28;20175;-64
2023/08/18 10:44:59;;;;;;;2.00;1.77;;;23.20;64.90;;;;;;5053136;28;20231;-64
2023/08/18 10:47:28;;;;;;;2.35;2.15;;;23.20;64.80;;;;;;5054010;28;20174;-64
2023/08/18 10:49:54;;;;;;;2.10;1.90;;;23.20;64.70;;;;;;5052983;28;20191;-63
2023/08/18 10:52:20;;;;;;;2.42;2.20;;;23.20;64.80;;;;;;5057477;28;20176;-61
2023/08/18 10:54:46;;;;;;;2.22;2.03;;;23.30;64.90;;;;;;5052362;28;20167;-62
2023/08/18 10:57:11;;;;;;;2.67;2.15;;;23.30;64.90;;;;;;5054143;28;20174;-62
2023/08/18 10:59:37;;;;;;;2.08;1.90;;;23.30;65.70;;;;;;5054448;28;20207;-64
2023/08/18 11:02:03;;;;;;;2.10;1.90;;;23.30;64.90;;;;;;5073281;28;20265;-63
2023/08/18 11:04:28;;;;;;;2.25;2.00;;;23.30;64.90;;;;;;5071905;28;20228;-63
2023/08/18 11:06:54;;;;;;;1.85;1.75;;;23.30;64.90;;;;;;5072450;28;20174;-63
2023/08/18 11:09:20;;;;;;;2.80;2.60;;;23.30;64.90;;;;;;5062229;28;20175;-62
2023/08/18 11:11:47;;;;;;;3.05;2.20;;;23.40;65.00;;;;;;5052658;28;20163;-63
2023/08/18 11:14:12;;;;;;;2.58;2.30;;;23.30;64.90;;;;;;5053171;28;20853;-62
2023/08/18 11:16:38;;;;;;;2.17;2.03;;;23.40;64.90;;;;;;5053383;28;20171;-62
2023/08/18 11:19:04;;;;;;;2.45;2.25;;;23.40;65.00;;;;;;5051829;28;20206;-62
2023/08/18 11:21:31;;;;;;;2.70;2.50;;;23.40;64.90;;;;;;5053499;28;20270;-63
2023/08/18 11:23:57;;;;;;;2.28;2.08;;;23.40;64.80;;;;;;5051167;28;20232;-63
2023/08/18 11:26:23;;;;;;;2.88;2.65;;;23.40;64.90;;;;;;5062940;28;20235;-63
2023/08/18 11:28:49;;;;;;;2.53;2.33;;;23.40;65.00;;;;;;5073079;28;20269;-63
2023/08/18 11:31:14;;;;;;;2.65;2.40;;;23.50;65.10;;;;;;5071600;28;20174;-62
2023/08/18 11:33:40;;;;;;;2.55;2.10;;;23.40;65.00;;;;;;5072264;28;20170;-64
2023/08/18 11:36:09;;;;;;;4.03;2.28;;;23.50;66.00;;;;;;5071654;28;20178;-64
2023/08/18 11:38:34;;;;;;;2.92;2.20;;;23.50;65.20;;;;;;5055573;28;20178;-64
2023/08/18 11:41:00;;;;;;;2.60;2.40;;;23.50;65.10;;;;;;5072521;28;20565;-65
2023/08/18 11:43:25;;;;;;;2.35;2.08;;;23.50;65.20;;;;;;5072853;28;20661;-64
2023/08/18 11:45:51;;;;;;;3.22;2.13;;;23.50;65.20;;;;;;5059977;28;20675;-64
2023/08/18 11:48:20;;;;;;;2.25;2.10;;;23.50;65.20;;;;;;5052645;28;20190;-63
2023/08/18 11:50:45;;;;;;;2.10;2.00;;;23.50;65.30;;;;;;5052947;28;20216;-63
2023/08/18 11:53:11;;;;;;;2.35;2.15;;;23.50;65.30;;;;;;5051825;28;20638;-63
2023/08/18 11:55:43;;;;;;;2.25;2.05;;;23.60;65.30;;;;;;5052705;28;20542;-63
2023/08/18 11:58:16;;;;;;;2.40;2.20;;;23.60;65.40;;;;;;5051471;28;20321;-63
2023/08/18 12:00:44;;;;;;;2.97;2.40;;;23.60;65.30;;;;;;5064436;28;20294;-65
2023/08/18 12:03:23;;;;;;;2.97;2.13;;;23.60;65.20;;;;;;5072356;28;20174;-64
2023/08/18 12:05:49;;;;;;;4.90;2.33;;;23.60;65.30;;;;;;5076671;28;20189;-63
2023/08/18 12:08:15;;;;;;;3.15;2.10;;;23.60;65.40;;;;;;5078214;28;20171;-62
2023/08/18 12:10:42;;;;;;;2.25;2.05;;;23.60;65.20;;;;;;5079218;28;20177;-62
2023/08/18 12:13:08;;;;;;;2.63;2.42;;;23.70;65.30;;;;;;5079158;28;20249;-62
2023/08/18 12:15:33;;;;;;;3.40;2.38;;;23.70;65.20;;;;;;5078580;28;20664;-63
2023/08/18 12:17:59;;;;;;;2.47;2.28;;;23.70;65.10;;;;;;5079149;28;20187;-63
2023/08/18 12:20:25;;;;;;;2.72;2.53;;;23.80;65.10;;;;;;5078965;28;20198;-64
2023/08/18 12:22:52;;;;;;;2.30;2.10;;;23.80;65.40;;;;;;5078433;28;20174;-64
2023/08/18 12:25:18;;;;;;;3.60;3.05;;;23.80;65.10;;;;;;5078867;28;20989;-63
2023/08/18 12:27:44;;;;;;;5.40;2.70;;;23.80;64.80;;;;;;5079511;28;20174;-63
2023/08/18 12:30:10;;;;;;;3.97;2.60;;;23.90;64.90;;;;;;5078106;28;20517;-63
2023/08/18 12:32:36;;;;;;;3.70;2.40;;;23.90;64.90;;;;;;5079111;28;20197;-64
2023/08/18 12:35:01;;;;;;;5.60;2.60;;;23.90;64.80;;;;;;5078449;28;20178;-65
2023/08/18 12:37:28;;;;;;;3.65;2.42;;;23.90;64.70;;;;;;5079127;28;20175;-65
2023/08/18 12:39:55;;;;;;;2.80;2.60;;;23.90;64.70;;;;;;5079200;28;20225;-65
2023/08/18 12:42:23;;;;;;;3.08;2.72;;;23.90;64.70;;;;;;5078164;28;20288;-65